Home > Products > Valid Products > TAF

000
FTUS43 KUNR 030520
TAFGCC
TAF
KGCC 030520Z 0306/0406 15008KT P6SM SCT250
     FM031300 14015KT P6SM SCT100
     FM032100 14012KT P6SM BKN120=



000
FTUS43 KUNR 030520
TAFRAP
TAF
KRAP 030520Z 0306/0406 04005KT P6SM SCT250
     FM031500 14012KT P6SM SCT150
     FM032300 14012KT P6SM BKN100=



000
FTUS43 KUNR 030520
TAFGCC
TAF
KGCC 030520Z 0306/0406 15008KT P6SM SCT250
     FM031300 14015KT P6SM SCT100
     FM032100 14012KT P6SM BKN120=



000
FTUS43 KUNR 030520
TAFRAP
TAF
KRAP 030520Z 0306/0406 04005KT P6SM SCT250
     FM031500 14012KT P6SM SCT150
     FM032300 14012KT P6SM BKN100=



000
FTUS43 KUNR 022327
TAFRAP
TAF
KRAP 022327Z 0300/0324 05009KT P6SM SKC
     FM030600 35005KT P6SM SCT250=



000
FTUS43 KUNR 022327
TAFGCC
TAF
KGCC 022327Z 0300/0324 01011KT P6SM SKC
     FM030200 11005KT P6SM SCT250
     FM030500 17012KT P6SM SCT250=



000
FTUS43 KUNR 022327
TAFRAP
TAF
KRAP 022327Z 0300/0324 05009KT P6SM SKC
     FM030600 35005KT P6SM SCT250=



000
FTUS43 KUNR 022327
TAFGCC
TAF
KGCC 022327Z 0300/0324 01011KT P6SM SKC
     FM030200 11005KT P6SM SCT250
     FM030500 17012KT P6SM SCT250=



000
FTUS43 KUNR 021720
TAFGCC
TAF
KGCC 021720Z 0218/0318 03010KT P6SM SKC
     FM030200 08005KT P6SM SCT250
     FM030500 17010KT P6SM SCT250=



000
FTUS43 KUNR 021720
TAFRAP
TAF
KRAP 021720Z 0218/0318 03010KT P6SM SKC
     FM030600 35005KT P6SM SCT250=



000
FTUS43 KUNR 021720
TAFRAP
TAF
KRAP 021720Z 0218/0318 03010KT P6SM SKC
     FM030600 35005KT P6SM SCT250=



000
FTUS43 KUNR 021720
TAFGCC
TAF
KGCC 021720Z 0218/0318 03010KT P6SM SKC
     FM030200 08005KT P6SM SCT250
     FM030500 17010KT P6SM SCT250=



000
FTUS43 KUNR 021120
TAFRAP
TAF
KRAP 021120Z 0212/0312 35012KT P6SM FEW150
     FM030500 15010KT P6SM SCT120=



000
FTUS43 KUNR 021120
TAFGCC
TAF
KGCC 021120Z 0212/0312 33012KT P6SM SCT150
     FM030300 13010KT P6SM SCT150=



000
FTUS43 KUNR 021120
TAFRAP
TAF
KRAP 021120Z 0212/0312 35012KT P6SM FEW150
     FM030500 15010KT P6SM SCT120=



000
FTUS43 KUNR 021120
TAFGCC
TAF
KGCC 021120Z 0212/0312 33012KT P6SM SCT150
     FM030300 13010KT P6SM SCT150=



000
FTUS43 KUNR 020520
TAFGCC
TAF
KGCC 020520Z 0206/0306 21006KT P6SM SKC
     FM021500 33012KT P6SM SKC
     FM022100 03010KT P6SM SKC=



000
FTUS43 KUNR 020520
TAFRAP
TAF
KRAP 020520Z 0206/0306 VRB05KT P6SM SKC
     FM021100 34012KT P6SM SKC
     FM021900 05010KT P6SM SKC=



000
FTUS43 KUNR 020520
TAFGCC
TAF
KGCC 020520Z 0206/0306 21006KT P6SM SKC
     FM021500 33012KT P6SM SKC
     FM022100 03010KT P6SM SKC=



000
FTUS43 KUNR 020520
TAFRAP
TAF
KRAP 020520Z 0206/0306 VRB05KT P6SM SKC
     FM021100 34012KT P6SM SKC
     FM021900 05010KT P6SM SKC=



000
FTUS43 KUNR 012323
TAFRAP
TAF
KRAP 012323Z 0200/0224 VRB05KT P6SM SKC
     FM021500 35013KT P6SM SKC
     FM022200 05010KT P6SM SKC=



000
FTUS43 KUNR 012323
TAFGCC
TAF
KGCC 012323Z 0200/0224 35012KT P6SM SKC
     FM020400 24006KT P6SM SKC
     FM021800 36013KT P6SM SKC=



000
FTUS43 KUNR 012323
TAFRAP
TAF
KRAP 012323Z 0200/0224 VRB05KT P6SM SKC
     FM021500 35013KT P6SM SKC
     FM022200 05010KT P6SM SKC=



000
FTUS43 KUNR 012323
TAFGCC
TAF
KGCC 012323Z 0200/0224 35012KT P6SM SKC
     FM020400 24006KT P6SM SKC
     FM021800 36013KT P6SM SKC=



000
FTUS43 KUNR 011720
TAFGCC
TAF
KGCC 011720Z 0118/0218 33009KT P6SM SKC
     FM020100 24006KT P6SM SKC=



000
FTUS43 KUNR 011720
TAFRAP
TAF
KRAP 011720Z 0118/0218 35013KT P6SM SKC=



000
FTUS43 KUNR 011720
TAFRAP
TAF
KRAP 011720Z 0118/0218 35013KT P6SM SKC=



000
FTUS43 KUNR 011720
TAFGCC
TAF
KGCC 011720Z 0118/0218 33009KT P6SM SKC
     FM020100 24006KT P6SM SKC=



000
FTUS43 KUNR 011120
TAFRAP
TAF
KRAP 011120Z 0112/0212 VRB05KT P6SM SCT100
     FM011700 34012KT P6SM SCT150=



000
FTUS43 KUNR 011120
TAFRAP
TAF
KRAP 011120Z 0112/0212 VRB05KT P6SM SCT100
     FM011700 34012KT P6SM SCT150=



000
FTUS43 KUNR 011120
TAFGCC
TAF
KGCC 011120Z 0112/0212 20008KT P6SM SCT150
     FM011500 33011KT P6SM FEW150=



000
FTUS43 KUNR 011120
TAFGCC
TAF
KGCC 011120Z 0112/0212 20008KT P6SM SCT150
     FM011500 33011KT P6SM FEW150=



000
FTUS43 KUNR 010836 AAA
TAFRAP
TAF AMD
KRAP 010836Z 0109/0206 VRB05KT P6SM VCTS BKN070CB
     FM011100 VRB05KT P6SM SCT100
     FM011700 34012KT P6SM SKC=



000
FTUS43 KUNR 010836 AAA
TAFRAP
TAF AMD
KRAP 010836Z 0109/0206 VRB05KT P6SM VCTS BKN070CB
     FM011100 VRB05KT P6SM SCT100
     FM011700 34012KT P6SM SKC=



000
FTUS43 KUNR 010520
TAFRAP
TAF
KRAP 010520Z 0106/0206 16008KT P6SM BKN090
     FM011700 34012KT P6SM SKC=



000
FTUS43 KUNR 010520
TAFGCC
TAF
KGCC 010520Z 0106/0206 16013KT P6SM SCT100
     FM010900 23006KT P6SM BKN100
     FM011500 33010KT P6SM SKC=



000
FTUS43 KUNR 010520
TAFGCC
TAF
KGCC 010520Z 0106/0206 16013KT P6SM SCT100
     FM010900 23006KT P6SM BKN100
     FM011500 33010KT P6SM SKC=



000
FTUS43 KUNR 010520
TAFRAP
TAF
KRAP 010520Z 0106/0206 16008KT P6SM BKN090
     FM011700 34012KT P6SM SKC=



000
FTUS43 KUNR 312320
TAFRAP
TAF
KRAP 312320Z 0100/0124 08006KT P6SM SKC
     FM010500 12008KT P6SM BKN090
     FM011500 34012KT P6SM SKC=



000
FTUS43 KUNR 312320
TAFGCC
TAF
KGCC 312320Z 0100/0124 14006KT P6SM SCT100
     FM010700 23006KT P6SM BKN100
     FM011600 33010KT P6SM SKC=



000
FTUS43 KUNR 311720
TAFRAP
TAF
KRAP 311720Z 3118/0118 06006KT P6SM SKC
     FM312300 12006KT P6SM SCT090=



000
FTUS43 KUNR 311720
TAFGCC
TAF
KGCC 311720Z 3118/0118 VRB06KT P6SM SKC
     FM312100 VRB06KT P6SM SCT100=



000
FTUS43 KUNR 311120
TAFGCC
TAF
KGCC 311120Z 3112/0112 16008KT P6SM SKC=



000
FTUS43 KUNR 311120
TAFRAP
TAF
KRAP 311120Z 3112/0112 31009KT P6SM SKC
     FM311600 05007KT P6SM SKC=



    US Dept of Commerce
    National Oceanic and Atmospheric Administration
    National Weather Service
    1325 East West Highway
    Silver Spring, MD 20910
    Page Author: NWS Internet Services Team
Disclaimer
Information Quality
Credits
Glossary
Privacy Policy
Freedom of Information Act (FOIA)
About Us
Career Opportunities